Time;durP1;ratioP1;P1;durP2;ratioP2;P2;SDS_P1;SDS_P2;PMS_P1;PMS_P2;Temp;Humidity;BMP_temperature;BMP_pressure;BME280_temperature;BME280_humidity;BME280_pressure;Samples;Min_cycle;Max_cycle;Signal;HPM_P1;HPM_P2
2022/08/08 00:00:12;;;;;;;3.80;3.58;;;;;;;17.99;100.00;100710.94;1670652;84;21022;-64
2022/08/08 00:03:14;;;;;;;3.65;3.55;;;;;;;18.00;100.00;100709.05;1667225;85;21086;-64
2022/08/08 00:05:54;;;;;;;4.33;3.90;;;;;;;18.00;100.00;100709.87;1674864;85;21035;-66
2022/08/08 00:09:04;;;;;;;3.42;3.22;;;;;;;18.01;100.00;100708.02;1656254;85;21183;-64
2022/08/08 00:11:45;;;;;;;4.10;3.33;;;;;;;18.01;100.00;100714.22;1651304;83;21275;-65
2022/08/08 00:14:52;;;;;;;2.67;2.58;;;;;;;18.01;100.00;100719.62;1664350;84;21517;-64
2022/08/08 00:17:42;;;;;;;3.52;3.33;;;;;;;18.05;100.00;100726.20;1659418;84;21057;-66
2022/08/08 00:20:11;;;;;;;3.05;2.85;;;;;;;18.09;100.00;100717.12;1663300;84;21037;-64
2022/08/08 00:22:47;;;;;;;2.58;2.37;;;;;;;18.15;100.00;100723.48;1664715;84;21093;-63
2022/08/08 00:25:28;;;;;;;3.42;3.22;;;;;;;18.12;100.00;100730.17;1665035;84;21104;-67
2022/08/08 00:27:59;;;;;;;3.42;3.22;;;;;;;18.01;100.00;100714.76;1662369;84;21065;-63
2022/08/08 00:30:32;;;;;;;3.55;3.35;;;;;;;18.11;100.00;100727.16;1632896;86;21569;-64
2022/08/08 00:33:15;;;;;;;3.47;3.27;;;;;;;18.09;100.00;100723.34;1666532;84;20978;-66
2022/08/08 00:36:09;;;;;;;3.87;3.67;;;;;;;18.08;100.00;100720.86;1664923;84;21017;-63
2022/08/08 00:38:57;;;;;;;5.95;2.95;;;;;;;18.05;100.00;100721.34;1663525;84;21042;-64
2022/08/08 00:41:50;;;;;;;3.65;3.45;;;;;;;18.02;100.00;100723.94;1665972;84;21001;-63
2022/08/08 00:44:41;;;;;;;4.12;3.90;;;;;;;18.00;100.00;100722.00;1661781;83;21060;-64
2022/08/08 00:47:31;;;;;;;4.58;3.80;;;;;;;17.97;100.00;100722.98;1686479;83;21073;-65
2022/08/08 00:50:47;;;;;;;3.42;3.22;;;;;;;17.95;100.00;100721.89;1660209;84;21029;-63
2022/08/08 00:53:54;;;;;;;3.30;3.10;;;;;;;17.97;100.00;100721.13;1692724;83;21021;-64
2022/08/08 00:57:01;;;;;;;4.90;2.52;;;;;;;17.99;100.00;100719.53;1685798;83;21045;-63
2022/08/08 01:00:02;;;;;;;3.35;3.15;;;;;;;17.99;100.00;100717.68;1657324;83;21580;-63
2022/08/08 01:03:01;;;;;;;3.47;3.17;;;;;;;17.97;100.00;100711.69;1691628;83;21105;-63
2022/08/08 01:06:02;;;;;;;3.15;3.00;;;;;;;17.94;100.00;100715.37;1689737;83;21013;-63
2022/08/08 01:09:10;;;;;;;2.80;2.70;;;;;;;17.90;100.00;100719.04;1688940;83;21060;-64
2022/08/08 01:11:57;;;;;;;3.25;3.05;;;;;;;17.90;100.00;100719.86;1690342;83;21076;-62
2022/08/08 01:14:43;;;;;;;3.17;3.05;;;;;;;17.87;100.00;100718.95;1686041;83;21104;-63
2022/08/08 01:17:48;;;;;;;3.95;3.65;;;;;;;17.87;100.00;100714.09;1690134;83;21027;-63
2022/08/08 01:21:10;;;;;;;2.95;2.65;;;;;;;17.89;100.00;100713.34;1701018;83;21010;-63
2022/08/08 01:24:08;;;;;;;2.80;2.62;;;;;;;17.90;100.00;100713.65;1652772;83;21081;-64
2022/08/08 01:27:17;;;;;;;3.02;2.45;;;;;;;17.91;100.00;100713.93;1653325;85;21019;-63
2022/08/08 01:30:09;;;;;;;3.37;3.10;;;;;;;17.93;100.00;100711.02;1618773;85;21498;-64
2022/08/08 01:32:57;;;;;;;3.42;3.22;;;;;;;17.92;100.00;100710.20;1635655;87;21072;-63
2022/08/08 01:35:47;;;;;;;2.47;2.37;;;;;;;17.90;100.00;100705.02;1692757;83;20998;-63
2022/08/08 01:38:42;;;;;;;3.45;3.05;;;;;;;17.92;100.00;100708.03;1688442;83;21149;-62
2022/08/08 01:41:17;;;;;;;2.70;2.60;;;;;;;17.90;100.00;100709.60;1677174;83;21526;-64
2022/08/08 01:44:18;;;;;;;4.62;2.83;;;;;;;17.89;100.00;100710.64;1691614;83;20983;-65
2022/08/08 01:47:34;;;;;;;2.62;2.50;;;;;;;17.89;100.00;100714.19;1693021;83;21007;-64
2022/08/08 01:50:57;;;;;;;2.52;2.40;;;;;;;17.89;100.00;100718.73;1696966;83;20978;-63
2022/08/08 01:54:03;;;;;;;2.72;2.52;;;;;;;17.86;100.00;100717.33;1690242;83;21015;-62
2022/08/08 01:57:02;;;;;;;4.22;2.40;;;;;;;17.87;100.00;100724.34;1695137;83;20988;-64
2022/08/08 02:00:15;;;;;;;2.00;1.90;;;;;;;17.88;100.00;100726.00;1679959;83;21082;-64
2022/08/08 02:03:10;;;;;;;2.20;2.02;;;;;;;17.89;100.00;100726.81;1692504;83;21025;-63
2022/08/08 02:05:46;;;;;;;2.92;1.98;;;;;;;17.87;100.00;100727.04;1700391;83;21091;-63
2022/08/08 02:08:26;;;;;;;;;;;;;;;17.87;100.00;100724.87;1670057;85;21209;-64
2022/08/08 02:11:26;;;;;;;2.05;1.90;;;;;;;17.87;100.00;100724.87;1658948;85;20411;-63
2022/08/08 02:14:33;;;;;;;4.20;1.80;;;;;;;17.81;100.00;100721.72;1691539;83;21507;-62
2022/08/08 02:17:17;;;;;;;2.37;2.17;;;;;;;17.78;100.00;100729.75;1690598;83;21030;-66
2022/08/08 02:20:02;;;;;;;2.12;1.82;;;;;;;17.79;100.00;100726.52;1694403;83;21054;-63
2022/08/08 02:22:53;;;;;;;1.90;1.80;;;;;;;17.79;100.00;100727.87;1694526;83;21600;-66
2022/08/08 02:25:43;;;;;;;1.57;1.55;;;;;;;17.82;100.00;100720.65;1696929;83;21054;-64
2022/08/08 02:28:35;;;;;;;2.10;2.00;;;;;;;17.79;100.00;100717.89;1691526;83;21074;-64
2022/08/08 02:31:51;;;;;;;4.47;2.05;;;;;;;17.80;100.00;100717.36;1661889;85;21074;-65
2022/08/08 02:34:26;;;;;;;2.33;2.12;;;;;;;17.80;100.00;100718.20;1695193;83;21510;-64
2022/08/08 02:37:01;;;;;;;2.77;2.58;;;;;;;17.81;100.00;100723.06;1695650;83;21085;-63
2022/08/08 02:39:55;;;;;;;1.82;1.72;;;;;;;17.81;100.00;100726.58;1687435;83;21490;-65
2022/08/08 02:43:10;;;;;;;2.67;2.55;;;;;;;17.79;100.00;100723.28;1688095;83;20987;-64
2022/08/08 02:46:28;;;;;;;2.12;2.02;;;;;;;17.79;100.00;100729.21;1687352;83;21014;-65
2022/08/08 02:49:39;;;;;;;2.30;2.17;;;;;;;17.76;100.00;100725.61;1684486;83;21029;-66
2022/08/08 02:52:36;;;;;;;2.50;2.30;;;;;;;17.73;100.00;100732.82;1693008;83;21058;-65
2022/08/08 02:55:13;;;;;;;2.08;1.98;;;;;;;17.71;100.00;100728.47;1685692;83;21026;-66
2022/08/08 02:58:23;;;;;;;3.22;2.15;;;;;;;17.69;100.00;100727.88;1670695;83;21062;-66
2022/08/08 03:01:38;;;;;;;1.75;1.65;;;;;;;17.67;100.00;100728.63;1658077;85;22000;-70
2022/08/08 03:04:51;;;;;;;1.57;1.57;;;;;;;17.41;100.00;100692.55;1688747;83;21113;-65
2022/08/08 03:07:33;;;;;;;2.10;2.10;;;;;;;17.67;100.00;100736.71;1700585;83;21071;-64
2022/08/08 03:10:24;;;;;;;1.80;1.80;;;;;;;17.66;100.00;100738.28;1688461;83;21057;-67
2022/08/08 03:13:29;;;;;;;2.02;1.92;;;;;;;17.65;100.00;100734.77;1692386;83;21049;-64
2022/08/08 03:16:24;;;;;;;1.90;1.80;;;;;;;17.67;100.00;100743.45;1692700;83;21088;-66
2022/08/08 03:19:16;;;;;;;1.75;1.65;;;;;;;17.67;100.00;100750.19;1562745;86;21607;-66
2022/08/08 03:21:42;;;;;;;1.47;1.37;;;;;;;17.69;100.00;100749.44;1695119;83;21495;-64
2022/08/08 03:24:09;;;;;;;1.80;1.70;;;;;;;17.69;100.00;100749.44;1700357;83;21557;-64
2022/08/08 03:26:39;;;;;;;1.95;1.87;;;;;;;17.72;100.00;100750.84;1676843;83;21047;-65
2022/08/08 03:29:08;;;;;;;2.30;2.15;;;;;;;17.74;100.00;100752.79;1693878;83;21042;-65
2022/08/08 03:34:21;;;;;;;1.55;1.55;;;;;;;17.75;100.00;100746.36;1689475;83;21026;-64
2022/08/08 03:36:49;;;;;;;1.80;1.80;;;;;;;17.78;100.00;100753.16;1694222;83;21029;-64
2022/08/08 03:39:16;;;;;;;2.30;2.10;;;;;;;17.81;100.00;100754.08;1693291;83;21082;-66
2022/08/08 03:41:44;;;;;;;1.25;1.10;;;;;;;17.82;100.00;100753.85;1694415;83;21023;-64
2022/08/08 03:44:10;;;;;;;1.75;1.65;;;;;;;17.85;100.00;100757.98;1695018;83;21098;-64
2022/08/08 03:46:46;;;;;;;1.90;1.80;;;;;;;17.83;100.00;100758.18;1734823;81;21460;-65
2022/08/08 03:49:20;;;;;;;1.92;1.82;;;;;;;17.83;100.00;100758.18;1735094;81;21070;-64
2022/08/08 03:51:53;;;;;;;1.80;1.70;;;;;;;17.82;100.00;100759.75;1730484;82;21086;-64
2022/08/08 03:54:24;;;;;;;1.62;1.52;;;;;;;17.83;100.00;100763.58;1734380;81;21144;-64
2022/08/08 03:56:51;;;;;;;4.25;1.67;;;;;;;17.87;100.00;100759.40;1702004;82;21512;-72
2022/08/08 03:59:18;;;;;;;1.30;1.20;;;;;;;17.67;100.00;100715.68;1630273;86;21058;-65
2022/08/08 04:01:44;;;;;;;1.07;1.07;;;;;;;17.99;100.00;100758.13;1692011;83;21093;-65
2022/08/08 04:04:11;;;;;;;1.12;1.12;;;;;;;18.00;100.00;100765.16;1692310;83;21471;-65
2022/08/08 04:06:47;;;;;;;2.12;1.07;;;;;;;18.00;100.00;100763.00;1686824;83;21119;-64
2022/08/08 04:09:15;;;;;;;1.77;1.72;;;;;;;18.01;100.00;100768.17;1628489;86;21037;-65
2022/08/08 04:11:43;;;;;;;1.27;1.27;;;;;;;18.05;100.00;100765.31;1690157;83;21081;-64
2022/08/08 04:14:10;;;;;;;1.75;1.35;;;;;;;18.11;100.00;100771.67;1694338;83;21003;-67
2022/08/08 04:16:36;;;;;;;1.27;1.27;;;;;;;18.09;100.00;100768.38;1661485;85;21034;-66
2022/08/08 04:19:03;;;;;;;1.40;1.40;;;;;;;18.09;100.00;100769.73;1655191;85;21714;-66
2022/08/08 04:21:30;;;;;;;1.90;1.85;;;;;;;18.09;100.00;100772.42;1658416;85;21049;-64
2022/08/08 04:23:57;;;;;;;3.22;1.40;;;;;;;18.11;100.00;100773.55;1694658;81;20986;-65
2022/08/08 04:26:23;;;;;;;;;;;;;;;18.11;100.00;100773.02;1665512;85;21519;-66
2022/08/08 04:28:50;;;;;;;1.47;1.47;;;;;;;18.12;100.00;100771.98;1643186;86;20152;-65
2022/08/08 04:31:16;;;;;;;1.67;1.60;;;;;;;18.10;100.00;100776.75;1653549;85;21084;-67
2022/08/08 04:33:43;;;;;;;1.95;1.85;;;;;;;18.12;100.00;100770.63;1665464;85;21065;-69
2022/08/08 04:36:10;;;;;;;2.55;1.92;;;;;;;18.16;100.00;100773.67;1695618;83;20991;-70
2022/08/08 04:38:36;;;;;;;1.90;1.80;;;;;;;18.19;100.00;100776.73;1691886;83;21081;-70
2022/08/08 04:41:03;;;;;;;3.12;2.17;;;;;;;18.22;100.00;100778.17;1692195;83;21560;-70
2022/08/08 04:43:29;;;;;;;1.65;1.52;;;;;;;18.23;100.00;100775.76;1691680;83;21042;-70
2022/08/08 04:45:55;;;;;;;2.37;2.27;;;;;;;18.25;100.00;100777.70;1693927;83;21069;-69
2022/08/08 04:48:22;;;;;;;3.50;1.50;;;;;;;18.26;100.00;100781.52;1694831;83;20979;-74
2022/08/08 04:50:51;;;;;;;4.53;1.82;;;;;;;18.29;100.00;100781.61;1695758;83;21074;-81
2022/08/08 04:53:19;;;;;;;3.42;2.22;;;;;;;18.31;100.00;100778.16;1688887;83;21026;-77
2022/08/08 04:55:45;;;;;;;1.98;1.87;;;;;;;18.34;100.00;100780.38;1694965;82;21046;-89
2022/08/08 04:58:13;;;;;;;;;;;;;;;18.39;100.00;100785.11;1689169;83;21189;-81
2022/08/08 05:00:40;;;;;;;2.58;2.05;;;;;;;18.42;100.00;100786.83;1656542;85;20593;-80
2022/08/08 05:03:07;;;;;;;2.90;2.10;;;;;;;18.41;100.00;100787.05;1649264;85;21029;-86
2022/08/08 05:05:35;;;;;;;1.95;1.82;;;;;;;18.43;100.00;100781.70;1687991;83;21561;-74
2022/08/08 05:08:02;;;;;;;2.62;2.52;;;;;;;18.45;100.00;100780.95;1692350;85;20979;-84
2022/08/08 05:10:29;;;;;;;2.52;2.33;;;;;;;18.44;100.00;100773.92;1694634;84;21091;-85
2022/08/08 05:12:56;;;;;;;3.75;3.55;;;;;;;18.47;100.00;100781.54;1694528;84;21033;-80
2022/08/08 05:15:23;;;;;;;5.10;4.75;;;;;;;18.52;100.00;100780.86;1692169;83;21046;-78
2022/08/08 05:17:50;;;;;;;3.00;2.80;;;;;;;18.59;100.00;100782.09;1693785;85;21069;-75
2022/08/08 05:20:16;;;;;;;3.20;2.90;;;;;;;18.61;100.00;100779.98;1695518;83;21011;-68
2022/08/08 05:22:42;;;;;;;2.37;2.25;;;;;;;18.59;100.00;100784.80;1691836;83;21030;-80
2022/08/08 05:25:09;;;;;;;2.95;2.80;;;;;;;18.59;100.00;100786.99;1695621;83;21050;-86
2022/08/08 05:27:35;;;;;;;3.00;2.80;;;;;;;18.62;100.00;100789.75;1689822;83;21090;-81
2022/08/08 05:30:04;;;;;;;;;;;;;;;18.66;100.00;100799.03;1689488;84;21026;-79
2022/08/08 05:32:32;;;;;;;2.75;2.65;;;;;;;18.73;100.00;100801.64;1689375;83;20153;-78
2022/08/08 05:34:59;;;;;;;2.22;2.12;;;;;;;18.72;100.00;100802.15;1695532;83;21486;-80
2022/08/08 05:37:30;;;;;;;3.17;2.05;;;;;;;18.71;100.00;100803.22;1692466;83;21077;-78
2022/08/08 05:40:03;;;;;;;2.72;2.30;;;;;;;18.74;100.00;100808.16;1694550;83;21077;-75
2022/08/08 05:42:43;;;;;;;3.80;3.58;;;;;;;18.78;100.00;100803.95;1670071;83;21050;-82
2022/08/08 05:45:12;;;;;;;3.15;3.05;;;;;;;18.82;100.00;100806.50;1700048;83;21107;-82
2022/08/08 05:47:40;;;;;;;2.98;2.83;;;;;;;18.88;100.00;100811.51;1711933;82;21119;-78
2022/08/08 05:50:09;;;;;;;5.70;5.30;;;;;;;18.91;100.00;100808.35;1715482;82;21027;-80
2022/08/08 05:52:37;;;;;;;2.50;2.40;;;;;;;18.94;100.00;100815.97;1715199;82;21003;-81
2022/08/08 05:55:08;;;;;;;2.27;2.20;;;;;;;18.96;100.00;100811.16;1712711;82;21540;-86
2022/08/08 05:57:37;;;;;;;3.80;2.33;;;;;;;19.01;100.00;100811.83;1720172;82;21096;-83
2022/08/08 06:00:10;;;;;;;2.17;2.12;;;;;;;19.05;100.00;100815.70;1717576;82;21030;-75
2022/08/08 06:03:10;;;;;;;2.12;2.02;;;;;;;19.15;100.00;100813.23;1721772;82;20983;-80
2022/08/08 06:05:58;;;;;;;2.75;1.77;;;;;;;19.29;100.00;100817.91;1716229;82;21523;-78
2022/08/08 06:08:29;;;;;;;2.12;2.12;;;;;;;19.36;100.00;100809.13;1717859;83;21085;-83
2022/08/08 06:10:59;;;;;;;2.40;2.30;;;;;;;19.39;99.59;100814.08;1721320;82;21022;-79
2022/08/08 06:13:27;;;;;;;2.25;2.15;;;;;;;19.41;98.94;100813.30;1701288;83;20963;-77
2022/08/08 06:15:55;;;;;;;2.12;1.75;;;;;;;19.40;98.82;100813.03;1685608;84;21054;-82
2022/08/08 06:18:29;;;;;;;1.80;1.70;;;;;;;19.41;99.02;100813.30;1672141;83;21055;-83
2022/08/08 06:20:58;;;;;;;1.65;1.55;;;;;;;19.47;99.37;100821.01;1697027;83;21026;-75
2022/08/08 06:23:27;;;;;;;5.50;2.10;;;;;;;19.52;98.71;100814.91;1696488;82;20969;-72
2022/08/08 06:26:05;;;;;;;1.95;1.80;;;;;;;19.55;97.96;100817.13;1721439;82;21018;-71
2022/08/08 06:28:48;;;;;;;4.10;2.85;;;;;;;19.57;98.27;100817.20;1721518;82;21010;-73
2022/08/08 06:31:19;;;;;;;2.25;1.60;;;;;;;19.64;98.21;100817.88;1714179;82;21017;-72
2022/08/08 06:34:03;;;;;;;2.08;1.98;;;;;;;19.71;96.95;100819.11;1717111;82;21049;-73
2022/08/08 06:36:41;;;;;;;1.47;1.47;;;;;;;19.73;96.46;100818.91;1735503;82;21046;-73
2022/08/08 06:39:11;;;;;;;2.02;1.70;;;;;;;19.74;96.35;100813.27;1730101;82;21027;-72
2022/08/08 06:41:48;;;;;;;2.05;1.90;;;;;;;19.80;96.97;100819.07;1732727;82;21557;-71
2022/08/08 06:44:17;;;;;;;1.60;1.57;;;;;;;19.93;96.18;100826.11;1729650;81;21047;-75
2022/08/08 06:46:43;;;;;;;1.07;1.07;;;;;;;20.03;95.26;100822.25;1639241;84;21076;-74
2022/08/08 06:49:12;;;;;;;1.77;1.62;;;;;;;20.10;94.61;100829.40;1663162;84;21067;-73
2022/08/08 06:51:38;;;;;;;1.30;1.30;;;;;;;20.16;94.53;100828.47;1656496;84;21078;-75
2022/08/08 06:54:06;;;;;;;2.05;0.85;;;;;;;20.19;93.54;100826.61;1648426;84;21536;-72
2022/08/08 06:56:35;;;;;;;0.95;0.95;;;;;;;20.21;93.44;100831.25;1697642;83;21117;-71
2022/08/08 06:59:03;;;;;;;2.35;1.80;;;;;;;20.23;93.77;100827.80;1693189;83;21006;-75
2022/08/08 07:01:37;;;;;;;1.67;1.10;;;;;;;20.25;93.56;100830.24;1691837;83;20979;-74
2022/08/08 07:04:25;;;;;;;1.12;1.12;;;;;;;20.25;92.98;100834.30;1707982;82;21077;-77
2022/08/08 07:06:56;;;;;;;1.92;1.30;;;;;;;20.24;92.87;100834.84;1706490;82;21008;-74
2022/08/08 07:09:37;;;;;;;2.52;1.20;;;;;;;20.19;92.54;100846.91;1697766;82;21441;-73
2022/08/08 07:12:10;;;;;;;1.45;1.35;;;;;;;20.13;92.73;100850.58;1698951;82;21636;-69
2022/08/08 07:14:53;;;;;;;1.25;1.25;;;;;;;20.05;93.15;100850.97;1710592;82;21443;-71
2022/08/08 07:17:23;;;;;;;1.05;1.05;;;;;;;20.04;93.12;100850.13;1720594;82;21018;-70
2022/08/08 07:20:08;;;;;;;1.05;1.05;;;;;;;20.13;92.97;100851.39;1716967;82;21062;-70
2022/08/08 07:22:45;;;;;;;1.30;1.30;;;;;;;20.17;92.68;100853.09;1713185;82;21163;-72
2022/08/08 07:25:12;;;;;;;2.25;1.05;;;;;;;20.15;92.66;100853.87;1708930;82;21094;-69
2022/08/08 07:27:45;;;;;;;3.70;0.78;;;;;;;20.15;93.14;100851.16;1709052;82;21567;-70
2022/08/08 07:30:13;;;;;;;1.25;1.15;;;;;;;20.16;93.35;100856.88;1712570;82;21007;-69
2022/08/08 07:32:41;;;;;;;0.93;0.93;;;;;;;20.18;93.71;100857.47;1710590;82;21018;-69
2022/08/08 07:35:10;;;;;;;1.57;1.57;;;;;;;20.21;93.57;100855.61;1642506;84;21535;-70
2022/08/08 07:37:39;;;;;;;1.75;1.65;;;;;;;20.27;93.30;100860.59;1650465;85;21622;-72
2022/08/08 07:40:09;;;;;;;2.45;2.35;;;;;;;20.37;92.98;100856.22;1713808;82;21082;-70
2022/08/08 07:42:37;;;;;;;2.70;1.50;;;;;;;20.57;92.81;100849.56;1708174;82;21071;-70
2022/08/08 07:45:07;;;;;;;1.02;1.02;;;;;;;20.79;91.56;100849.20;1710910;82;21514;-68
2022/08/08 07:47:37;;;;;;;1.37;1.30;;;;;;;20.97;89.66;100848.67;1726949;82;20979;-70
2022/08/08 07:50:04;;;;;;;1.70;1.70;;;;;;;21.14;87.70;100861.69;1736174;82;20999;-69
2022/08/08 07:52:32;;;;;;;1.82;1.47;;;;;;;21.22;86.60;100855.03;1732661;81;21546;-70
2022/08/08 07:55:22;;;;;;;1.57;0.68;;;;;;;21.31;87.00;100855.46;1731836;81;20986;-70
2022/08/08 07:58:14;;;;;;;1.57;1.55;;;;;;;21.41;86.33;100851.53;1726515;82;21079;-68
2022/08/08 08:01:01;;;;;;;2.27;2.17;;;;;;;21.45;85.22;100850.00;1724167;82;21054;-67
2022/08/08 08:03:54;;;;;;;2.20;1.53;;;;;;;21.39;85.66;100848.25;1708416;84;21586;-70
2022/08/08 08:06:25;;;;;;;5.42;2.30;;;;;;;21.37;85.95;100851.75;1707994;83;20995;-70
2022/08/08 08:09:12;;;;;;;2.47;2.37;;;;;;;21.39;87.05;100846.35;1711345;83;21013;-71
2022/08/08 08:11:45;;;;;;;2.60;2.50;;;;;;;21.56;86.34;100847.72;1703945;83;21323;-69
2022/08/08 08:14:31;;;;;;;4.65;1.77;;;;;;;21.66;85.35;100853.85;1707808;82;21055;-69
2022/08/08 08:16:58;;;;;;;2.37;2.27;;;;;;;21.69;85.24;100850.63;1668162;85;21036;-68
2022/08/08 08:19:30;;;;;;;2.08;1.98;;;;;;;21.67;84.47;100860.91;1701576;83;21064;-69
2022/08/08 08:21:57;;;;;;;1.98;1.98;;;;;;;21.54;84.36;100852.58;1709094;84;21041;-70
2022/08/08 08:24:26;;;;;;;2.10;2.00;;;;;;;21.43;85.25;100854.82;1700480;83;21006;-69
2022/08/08 08:26:53;;;;;;;2.35;2.25;;;;;;;21.42;85.89;100857.26;1657711;85;21002;-69
2022/08/08 08:29:19;;;;;;;3.05;2.22;;;;;;;21.53;86.30;100863.16;1705935;83;21051;-69
2022/08/08 08:31:47;;;;;;;2.77;2.67;;;;;;;21.64;85.43;100855.16;1654955;85;21006;-70
2022/08/08 08:34:14;;;;;;;3.00;2.87;;;;;;;21.69;85.20;100853.87;1699700;82;21043;-68
2022/08/08 08:36:40;;;;;;;3.08;2.80;;;;;;;21.66;84.24;100855.72;1692385;83;21038;-70
2022/08/08 08:39:07;;;;;;;3.67;2.70;;;;;;;21.54;84.67;100862.06;1682391;83;21571;-70
2022/08/08 08:41:35;;;;;;;3.75;2.95;;;;;;;21.48;85.27;100869.04;1691790;83;21527;-68
2022/08/08 08:44:02;;;;;;;2.55;2.45;;;;;;;21.45;85.13;100858.13;1690371;83;21019;-68
2022/08/08 08:46:29;;;;;;;2.95;2.75;;;;;;;21.46;85.39;100865.21;1688330;85;21153;-69
2022/08/08 08:48:57;;;;;;;2.42;2.33;;;;;;;21.48;84.91;100863.61;1666051;83;21053;-71
2022/08/08 08:51:27;;;;;;;3.08;2.98;;;;;;;21.46;85.15;100861.69;1687818;83;21065;-72
2022/08/08 08:54:46;;;;;;;3.05;2.95;;;;;;;21.53;86.04;100858.24;1806024;77;22607;-69
2022/08/08 08:57:15;;;;;;;1.98;1.87;;;;;;;21.53;85.26;100853.66;1717093;79;21117;-67
2022/08/08 08:59:43;;;;;;;2.37;2.27;;;;;;;21.56;85.03;100855.05;1721925;82;20998;-69
2022/08/08 09:02:18;;;;;;;3.30;2.70;;;;;;;21.60;84.82;100859.44;1728058;81;20998;-71
2022/08/08 09:04:47;;;;;;;2.53;2.40;;;;;;;21.58;85.11;100870.53;1722948;81;20982;-70
2022/08/08 09:07:21;;;;;;;2.58;2.47;;;;;;;21.51;84.69;100869.36;1730168;81;21002;-68
2022/08/08 09:09:52;;;;;;;3.40;2.72;;;;;;;21.48;85.29;100873.92;1721080;81;21145;-69
2022/08/08 09:12:22;;;;;;;2.65;2.58;;;;;;;21.50;86.07;100871.77;1717147;81;21851;-70
2022/08/08 09:14:53;;;;;;;5.15;4.85;;;;;;;21.56;85.47;100872.67;1687266;83;21010;-69
2022/08/08 09:17:25;;;;;;;3.70;3.50;;;;;;;21.62;84.52;100858.66;1707704;82;21533;-70
2022/08/08 09:19:56;;;;;;;2.27;2.17;;;;;;;21.68;85.17;100860.36;1701902;81;21589;-71
2022/08/08 09:22:23;;;;;;;3.10;2.90;;;;;;;21.78;83.74;100861.88;1720495;81;21560;-70
2022/08/08 09:24:52;;;;;;;2.70;2.60;;;;;;;21.80;83.36;100854.30;1693111;83;21396;-71
2022/08/08 09:27:20;;;;;;;3.47;3.37;;;;;;;21.83;82.69;100857.89;1659524;84;21044;-70
2022/08/08 09:30:07;;;;;;;4.37;2.58;;;;;;;21.87;83.09;100854.95;1685813;83;20983;-70
2022/08/08 09:32:53;;;;;;;2.72;2.60;;;;;;;21.95;83.00;100853.14;1690306;83;21547;-68
2022/08/08 09:35:27;;;;;;;2.47;2.27;;;;;;;22.11;84.22;100847.91;1659008;83;21128;-67
2022/08/08 09:37:58;;;;;;;3.65;3.37;;;;;;;21.90;83.82;100794.72;1649498;85;21639;-67
2022/08/08 09:40:29;;;;;;;3.42;3.22;;;;;;;22.27;83.69;100847.59;1650270;85;21045;-67
2022/08/08 09:43:19;;;;;;;2.72;2.60;;;;;;;22.20;83.26;100857.25;1650829;85;21081;-67
2022/08/08 09:46:00;;;;;;;3.55;3.35;;;;;;;22.05;83.93;100858.42;1646127;85;21604;-67
2022/08/08 09:48:34;;;;;;;5.75;3.15;;;;;;;21.89;84.70;100861.48;1646240;85;21066;-66
2022/08/08 09:51:01;;;;;;;2.77;2.58;;;;;;;21.75;85.83;100861.01;1616394;86;21533;-70
2022/08/08 09:53:51;;;;;;;3.08;2.87;;;;;;;21.70;86.54;100857.70;1677792;84;21107;-70
2022/08/08 09:56:20;;;;;;;2.90;2.70;;;;;;;21.74;86.61;100866.17;1674812;83;21010;-69
2022/08/08 09:58:55;;;;;;;2.75;2.65;;;;;;;21.74;87.13;100861.55;1681559;83;21031;-70
2022/08/08 10:01:22;;;;;;;3.17;2.47;;;;;;;21.75;86.95;100865.08;1651784;84;21025;-72
2022/08/08 10:03:53;;;;;;;2.35;2.25;;;;;;;21.80;86.97;100863.80;1664547;84;21014;-70
2022/08/08 10:06:20;;;;;;;2.02;1.92;;;;;;;21.86;86.59;100864.15;1658665;85;20962;-70
2022/08/08 10:08:51;;;;;;;2.55;2.37;;;;;;;21.93;86.03;100866.70;1662699;84;21102;-71
2022/08/08 10:11:20;;;;;;;3.37;3.17;;;;;;;21.96;86.00;100860.23;1666296;84;21254;-70
2022/08/08 10:13:57;;;;;;;4.30;2.70;;;;;;;21.95;85.71;100865.36;1659858;84;21136;-72
2022/08/08 10:16:28;;;;;;;2.55;2.45;;;;;;;21.95;85.57;100868.08;1663642;85;21481;-69
2022/08/08 10:19:01;;;;;;;2.85;2.72;;;;;;;21.95;85.50;100868.08;1637371;85;20978;-69
2022/08/08 10:21:32;;;;;;;2.85;2.33;;;;;;;22.02;85.21;100868.42;1669285;85;21626;-69
2022/08/08 10:24:09;;;;;;;2.87;2.67;;;;;;;22.09;85.03;100865.80;1660196;85;21029;-70
2022/08/08 10:26:48;;;;;;;2.75;2.65;;;;;;;22.12;84.67;100868.56;1665872;84;21044;-70
2022/08/08 10:29:14;;;;;;;2.47;2.27;;;;;;;22.15;84.13;100863.45;1659502;84;21547;-69
2022/08/08 10:34:28;;;;;;;2.27;2.17;;;;;;;22.22;83.96;100864.60;1659750;84;21097;-69
2022/08/08 10:36:56;;;;;;;2.62;2.37;;;;;;;22.30;83.05;100862.84;1662419;84;21086;-68
2022/08/08 10:39:25;;;;;;;3.12;2.55;;;;;;;22.35;83.10;100865.60;1662012;85;21033;-70
2022/08/08 10:42:03;;;;;;;2.37;2.30;;;;;;;22.42;83.03;100872.21;1669428;84;21042;-69
2022/08/08 10:44:41;;;;;;;3.08;2.87;;;;;;;22.46;82.82;100865.19;1662558;84;20958;-69
2022/08/08 10:47:18;;;;;;;2.80;2.70;;;;;;;22.48;82.39;100867.66;1677246;84;21504;-70
2022/08/08 10:49:52;;;;;;;;;;;;;;;22.44;82.86;100865.98;1675996;84;21120;-68
2022/08/08 10:52:26;;;;;;;3.50;2.60;;;;;;;22.40;82.74;100864.05;1663115;84;20111;-71
2022/08/08 10:54:54;;;;;;;4.78;3.75;;;;;;;22.25;83.11;100861.94;1650378;84;21170;-71
2022/08/08 10:57:21;;;;;;;2.98;2.85;;;;;;;22.15;83.89;100860.73;1665005;84;21053;-69
2022/08/08 10:59:56;;;;;;;3.50;3.20;;;;;;;22.14;84.69;100852.84;1652027;85;21080;-69
2022/08/08 11:02:31;;;;;;;2.72;2.62;;;;;;;22.16;84.51;100851.50;1655478;85;21147;-68
2022/08/08 11:05:00;;;;;;;4.10;3.77;;;;;;;22.19;84.31;100858.86;1658430;85;21085;-69
2022/08/08 11:07:34;;;;;;;3.58;3.33;;;;;;;22.19;84.21;100850.20;1665393;85;21060;-71
2022/08/08 11:10:12;;;;;;;3.60;3.30;;;;;;;22.12;84.89;100845.48;1661299;85;21017;-70
2022/08/08 11:12:58;;;;;;;4.28;3.98;;;;;;;22.04;85.26;100843.20;1641938;85;21018;-69
2022/08/08 11:15:27;;;;;;;4.00;3.65;;;;;;;21.99;85.40;100845.87;1635180;85;21633;-71
2022/08/08 11:17:54;;;;;;;4.42;3.10;;;;;;;21.93;86.15;100844.98;1639092;85;21053;-69
2022/08/08 11:20:27;;;;;;;4.90;4.58;;;;;;;21.93;86.23;100840.37;1631983;85;21062;-68
2022/08/08 11:22:59;;;;;;;4.15;3.67;;;;;;;22.00;85.99;100843.42;1616141;86;21022;-69
2022/08/08 11:25:32;;;;;;;9.80;3.35;;;;;;;22.05;85.64;100845.66;1655131;84;21108;-69
2022/08/08 11:28:02;;;;;;;4.08;3.87;;;;;;;22.05;85.49;100847.02;1665261;84;21078;-69
2022/08/08 11:30:32;;;;;;;4.72;3.85;;;;;;;22.05;84.94;100851.64;1669111;84;21677;-72
2022/08/08 11:33:04;;;;;;;3.87;3.67;;;;;;;22.00;84.85;100848.85;1632970;86;21111;-69
2022/08/08 11:35:31;;;;;;;3.95;3.75;;;;;;;22.00;85.29;100844.27;1656779;84;21016;-69
2022/08/08 11:37:57;;;;;;;3.87;3.58;;;;;;;22.01;84.80;100843.72;1660957;84;21153;-69
2022/08/08 11:40:23;;;;;;;3.65;3.45;;;;;;;22.04;85.04;100847.27;1675751;84;21049;-68
2022/08/08 11:42:51;;;;;;;3.02;2.77;;;;;;;22.08;84.33;100844.36;1669129;84;21535;-74
2022/08/08 11:45:20;;;;;;;3.83;3.52;;;;;;;22.09;84.50;100845.44;1675191;83;21025;-71
2022/08/08 11:47:48;;;;;;;4.08;3.37;;;;;;;22.12;84.67;100846.84;1694741;83;21034;-70
2022/08/08 11:50:20;;;;;;;5.47;4.17;;;;;;;22.15;84.70;100841.73;1698616;83;21068;-71
2022/08/08 11:52:47;;;;;;;3.83;3.67;;;;;;;22.19;85.20;100840.69;1703849;83;21054;-71
2022/08/08 11:55:18;;;;;;;4.03;3.77;;;;;;;22.28;84.77;100835.64;1687232;83;21092;-71
2022/08/08 11:57:45;;;;;;;4.00;3.80;;;;;;;22.40;84.30;100835.53;1671968;84;21088;-71
2022/08/08 12:00:17;;;;;;;3.52;3.37;;;;;;;22.48;83.21;100832.34;1659613;84;21582;-74
2022/08/08 12:02:53;;;;;;;3.83;3.33;;;;;;;22.50;83.39;100829.64;1697846;83;21012;-71
2022/08/08 12:05:21;;;;;;;3.87;3.62;;;;;;;22.53;83.03;100834.58;1696507;83;21477;-70
2022/08/08 12:07:54;;;;;;;4.08;3.85;;;;;;;22.53;82.75;100833.22;1693188;83;21124;-69
2022/08/08 12:10:25;;;;;;;6.40;5.08;;;;;;;22.51;82.34;100831.84;1690056;83;21063;-69
2022/08/08 12:13:10;;;;;;;4.47;4.08;;;;;;;22.49;82.74;100835.33;1698373;81;21107;-73